createdAt,value
2022-10-18T00:00:59.708Z,94.30
2022-10-18T00:04:03.008Z,94.20
2022-10-18T00:07:06.057Z,93.89
2022-10-18T00:10:09.762Z,94.05
2022-10-18T00:13:12.364Z,93.98
2022-10-18T00:16:25.368Z,94.13
2022-10-18T00:19:29.318Z,95.02
2022-10-18T00:22:35.028Z,94.97
2022-10-18T00:25:37.630Z,94.59
2022-10-18T00:28:41.476Z,94.41
2022-10-18T00:31:44.476Z,94.60
2022-10-18T00:34:47.408Z,94.52
2022-10-18T00:37:50.044Z,94.63
2022-10-18T00:40:52.928Z,94.80
2022-10-18T00:43:55.504Z,94.90
2022-10-18T00:47:06.539Z,95.00
2022-10-18T00:50:10.398Z,95.27
2022-10-18T00:53:17.856Z,95.46
2022-10-18T00:56:20.815Z,95.39
2022-10-18T00:59:24.378Z,95.49
2022-10-18T01:02:27.363Z,95.37
2022-10-18T01:05:30.348Z,95.23
2022-10-18T01:09:11.484Z,95.09
2022-10-18T01:12:27.911Z,94.92
2022-10-18T01:15:48.491Z,95.04
2022-10-18T01:19:29.008Z,94.86
2022-10-18T01:22:49.883Z,95.22
2022-10-18T01:26:21.471Z,95.01
2022-10-18T01:30:03.107Z,94.75
2022-10-18T01:33:51.136Z,94.87
2022-10-18T01:36:57.077Z,95.20
2022-10-18T01:40:03.801Z,95.29
2022-10-18T01:43:10.206Z,94.86
2022-10-18T01:46:18.693Z,94.57
2022-10-18T01:49:21.504Z,94.75
2022-10-18T01:52:24.298Z,94.49
2022-10-18T01:55:31.764Z,94.43
2022-10-18T01:58:46.992Z,94.81
2022-10-18T02:02:04.175Z,94.31
2022-10-18T02:05:26.857Z,94.52
2022-10-18T02:08:42.806Z,95.32
2022-10-18T02:11:48.227Z,94.79
2022-10-18T02:14:52.697Z,94.64
2022-10-18T02:17:57.026Z,94.95
2022-10-18T02:21:03.017Z,94.79
2022-10-18T02:24:08.080Z,94.87
2022-10-18T02:27:11.209Z,94.73
2022-10-18T02:30:15.523Z,94.97
2022-10-18T02:33:38.317Z,94.93
2022-10-18T02:36:46.598Z,94.80
2022-10-18T02:39:51.529Z,95.23
2022-10-18T02:42:56.909Z,95.11
2022-10-18T02:45:59.851Z,95.20
2022-10-18T02:49:02.761Z,95.23
2022-10-18T02:52:05.493Z,94.97
2022-10-18T02:55:10.571Z,95.22
2022-10-18T02:58:14.733Z,94.93
2022-10-18T03:01:17.877Z,94.58
2022-10-18T03:04:20.727Z,94.48
2022-10-18T03:07:23.763Z,94.35
2022-10-18T03:10:28.661Z,94.66
2022-10-18T03:13:31.593Z,94.88
2022-10-18T03:16:34.309Z,94.40
2022-10-18T03:19:38.749Z,94.45
2022-10-18T03:22:41.331Z,94.99
2022-10-18T03:25:46.399Z,95.53
2022-10-18T03:28:49.261Z,95.43
2022-10-18T03:31:52.210Z,95.23
2022-10-18T03:34:55.071Z,94.95
2022-10-18T03:37:57.970Z,94.85
2022-10-18T03:41:00.862Z,95.24
2022-10-18T03:44:04.137Z,94.93
2022-10-18T03:47:06.792Z,94.87
2022-10-18T03:50:09.792Z,94.31
2022-10-18T03:53:12.408Z,94.06
2022-10-18T03:56:15.264Z,93.93
2022-10-18T03:59:17.947Z,94.19
2022-10-18T04:02:20.980Z,93.99
2022-10-18T04:05:24.392Z,94.35
2022-10-18T04:08:27.182Z,94.73
2022-10-18T04:11:30.105Z,94.34
2022-10-18T04:14:32.642Z,94.27
2022-10-18T04:17:35.642Z,94.50
2022-10-18T04:20:38.280Z,94.25
2022-10-18T04:23:41.247Z,94.07
2022-10-18T04:26:44.028Z,93.80
2022-10-18T04:29:46.951Z,93.38
2022-10-18T04:32:49.515Z,93.21
2022-10-18T04:35:53.324Z,92.68
2022-10-18T04:38:55.994Z,92.64
2022-10-18T04:41:58.849Z,92.21
2022-10-18T04:45:01.428Z,92.22
2022-10-18T04:48:05.149Z,92.08
2022-10-18T04:51:08.839Z,92.06
2022-10-18T04:54:11.723Z,91.79
2022-10-18T04:57:14.343Z,91.33
2022-10-18T05:00:20.530Z,91.08
2022-10-18T05:03:23.133Z,90.88
2022-10-18T05:06:26.232Z,91.12
2022-10-18T05:09:28.927Z,90.75
2022-10-18T05:12:32.631Z,90.83
2022-10-18T05:15:35.906Z,90.83
2022-10-18T05:18:38.880Z,91.07
2022-10-18T05:21:41.558Z,91.14
2022-10-18T05:24:47.606Z,90.54
2022-10-18T05:27:50.238Z,90.63
2022-10-18T05:30:56.357Z,91.48
2022-10-18T05:33:59.354Z,92.09
2022-10-18T05:37:02.282Z,91.56
2022-10-18T05:40:05.409Z,90.79
2022-10-18T05:43:08.466Z,90.91
2022-10-18T05:46:15.492Z,91.51
2022-10-18T05:49:18.831Z,91.82
2022-10-18T05:52:21.798Z,92.66
2022-10-18T05:55:25.062Z,92.90
2022-10-18T05:58:27.787Z,92.63
2022-10-18T06:01:31.106Z,92.49
2022-10-18T06:04:34.846Z,92.43
2022-10-18T06:07:37.340Z,92.64
2022-10-18T06:10:40.635Z,92.13
2022-10-18T06:13:45.159Z,91.94
2022-10-18T06:16:48.036Z,91.76
2022-10-18T06:19:50.614Z,91.88
2022-10-18T06:22:53.733Z,92.42
2022-10-18T06:26:05.157Z,92.68
2022-10-18T06:29:08.239Z,93.49
2022-10-18T06:32:10.891Z,92.92
2022-10-18T06:35:13.851Z,92.69
2022-10-18T06:38:16.351Z,92.49
2022-10-18T06:41:19.727Z,92.44
2022-10-18T06:44:22.398Z,91.32
2022-10-18T06:47:25.483Z,90.24
2022-10-18T06:50:28.067Z,89.05
2022-10-18T06:53:33.587Z,87.29
2022-10-18T06:56:36.851Z,86.76
2022-10-18T06:59:39.884Z,85.76
2022-10-18T07:02:42.687Z,84.52
2022-10-18T07:05:45.811Z,84.22
2022-10-18T07:08:49.699Z,82.88
2022-10-18T07:11:53.263Z,83.00
2022-10-18T07:14:56.092Z,82.64
2022-10-18T07:17:59.128Z,80.83
2022-10-18T07:21:06.476Z,79.02
2022-10-18T07:24:09.328Z,76.89
2022-10-18T07:27:11.895Z,76.96
2022-10-18T07:30:15.381Z,76.23
2022-10-18T07:33:18.006Z,75.34
2022-10-18T07:36:22.221Z,74.26
2022-10-18T07:39:24.945Z,72.52
2022-10-18T07:42:28.039Z,72.16
2022-10-18T07:45:32.107Z,72.50
2022-10-18T07:48:35.208Z,72.64
2022-10-18T07:51:39.273Z,71.00
2022-10-18T07:54:42.198Z,70.41
2022-10-18T07:57:44.732Z,68.45
2022-10-18T08:00:48.083Z,67.66
2022-10-18T08:03:51.862Z,67.81
2022-10-18T08:06:55.809Z,67.49
2022-10-18T08:09:58.882Z,67.60
2022-10-18T08:13:01.523Z,66.91
2022-10-18T08:16:09.185Z,66.16
2022-10-18T08:19:11.706Z,65.44
2022-10-18T08:22:14.532Z,64.87
2022-10-18T08:25:17.566Z,63.76
2022-10-18T08:28:20.507Z,62.96
2022-10-18T08:31:23.147Z,63.70
2022-10-18T08:34:26.046Z,63.29
2022-10-18T08:37:28.633Z,63.33
2022-10-18T08:40:34.744Z,63.47
2022-10-18T08:43:45.435Z,63.04
2022-10-18T08:46:55.720Z,62.08
2022-10-18T08:50:04.038Z,60.07
2022-10-18T08:53:25.531Z,59.75
2022-10-18T08:56:28.216Z,59.51
2022-10-18T08:59:43.887Z,58.94
2022-10-18T09:02:52.755Z,59.08
2022-10-18T09:06:23.605Z,58.15
2022-10-18T09:09:54.430Z,58.70
2022-10-18T09:13:15.751Z,58.56
2022-10-18T09:16:28.204Z,57.49
2022-10-18T09:23:20.406Z,57.85
2022-10-18T09:26:41.132Z,58.33
2022-10-18T09:30:13.488Z,56.58
2022-10-18T09:33:28.591Z,55.44
2022-10-18T09:36:35.683Z,54.65
2022-10-18T09:39:39.475Z,55.33
2022-10-18T09:42:51.250Z,55.90
2022-10-18T09:45:55.807Z,56.86
2022-10-18T09:49:01.735Z,55.46
2022-10-18T09:52:12.428Z,55.76
2022-10-18T09:55:26.665Z,53.98
2022-10-18T09:58:40.506Z,52.97
2022-10-18T10:01:43.228Z,52.22
2022-10-18T10:04:46.571Z,52.12
2022-10-18T10:07:49.458Z,51.58
2022-10-18T10:10:52.411Z,51.72
2022-10-18T10:17:29.744Z,51.97
2022-10-18T10:20:50.530Z,50.40
2022-10-18T10:23:57.072Z,49.21
2022-10-18T10:27:21.247Z,49.16
2022-10-18T10:30:35.820Z,48.89
2022-10-18T10:33:38.840Z,48.06
2022-10-18T10:36:50.703Z,48.36
2022-10-18T10:40:18.801Z,48.04
2022-10-18T10:43:45.104Z,46.93
2022-10-18T10:46:50.136Z,47.98
2022-10-18T10:49:56.400Z,47.77
2022-10-18T10:53:01.399Z,47.09
2022-10-18T10:56:06.055Z,47.94
2022-10-18T10:59:20.092Z,48.12
2022-10-18T11:02:31.312Z,48.19
2022-10-18T11:05:47.121Z,46.84
2022-10-18T11:08:52.740Z,47.26
2022-10-18T11:12:02.610Z,46.35
2022-10-18T11:15:14.507Z,45.82
2022-10-18T11:18:24.020Z,46.17
2022-10-18T11:21:29.979Z,46.09
2022-10-18T11:24:35.519Z,46.43
2022-10-18T11:27:47.828Z,45.78
2022-10-18T11:30:59.591Z,45.88
2022-10-18T11:34:17.785Z,45.64
2022-10-18T11:37:38.351Z,44.67
2022-10-18T11:41:11.438Z,44.44
2022-10-18T11:44:40.432Z,44.17
2022-10-18T11:47:55.811Z,44.29
2022-10-18T11:51:11.631Z,43.92
2022-10-18T11:58:25.109Z,44.73
2022-10-18T12:01:31.115Z,44.61
2022-10-18T12:04:48.971Z,44.78
2022-10-18T12:08:14.111Z,43.74
2022-10-18T12:11:54.866Z,44.37
2022-10-18T12:15:28.817Z,44.08
2022-10-18T12:18:33.015Z,43.76
2022-10-18T12:21:36.054Z,43.50
2022-10-18T12:24:41.020Z,43.26
2022-10-18T12:27:55.007Z,43.69
2022-10-18T12:31:41.448Z,43.48
2022-10-18T12:34:53.855Z,43.54
2022-10-18T12:38:11.635Z,43.95
2022-10-18T12:41:21.238Z,44.01
2022-10-18T12:44:32.093Z,44.14
2022-10-18T12:47:34.905Z,43.58
2022-10-18T12:50:43.282Z,43.23
2022-10-18T12:54:12.524Z,42.74
2022-10-18T12:57:23.670Z,42.95
2022-10-18T13:00:32.445Z,43.18
2022-10-18T13:03:56.222Z,43.04
2022-10-18T13:06:59.546Z,42.67
2022-10-18T13:10:07.976Z,43.22
2022-10-18T13:13:39.054Z,42.12
2022-10-18T13:16:49.258Z,42.33
2022-10-18T13:20:27.285Z,42.13
2022-10-18T13:24:10.828Z,42.36
2022-10-18T13:31:16.235Z,41.80
2022-10-18T13:34:23.063Z,41.51
2022-10-18T13:37:27.181Z,42.62
2022-10-18T13:40:32.610Z,41.80
2022-10-18T13:43:59.341Z,41.90
2022-10-18T13:47:01.949Z,41.38
2022-10-18T13:50:17.272Z,41.60
2022-10-18T13:53:39.763Z,42.55
2022-10-18T13:56:52.569Z,42.26
2022-10-18T14:00:33.199Z,42.08
2022-10-18T14:07:04.986Z,40.06
2022-10-18T14:10:29.752Z,41.38
2022-10-18T14:13:48.226Z,41.69
2022-10-18T14:17:21.231Z,42.27
2022-10-18T14:20:29.940Z,43.44
2022-10-18T14:23:37.940Z,43.65
2022-10-18T14:26:40.501Z,42.38
2022-10-18T14:29:43.597Z,43.38
2022-10-18T14:32:48.497Z,43.83
2022-10-18T14:36:07.344Z,44.05
2022-10-18T14:39:21.109Z,44.33
2022-10-18T14:42:26.817Z,45.29
2022-10-18T14:45:29.399Z,45.49
2022-10-18T14:48:32.269Z,46.05
2022-10-18T14:51:38.703Z,46.10
2022-10-18T14:54:42.669Z,46.51
2022-10-18T14:57:45.833Z,46.51
2022-10-18T15:00:50.731Z,47.10
2022-10-18T15:04:01.047Z,49.45
2022-10-18T15:07:07.199Z,50.00
2022-10-18T15:10:25.546Z,50.12
2022-10-18T15:13:31.419Z,50.83
2022-10-18T15:16:34.637Z,51.59
2022-10-18T15:19:42.276Z,52.77
2022-10-18T15:22:46.755Z,53.87
2022-10-18T15:25:52.868Z,55.13
2022-10-18T15:29:00.559Z,55.91
2022-10-18T15:32:22.116Z,56.67
2022-10-18T15:35:30.625Z,57.59
2022-10-18T15:38:33.638Z,58.60
2022-10-18T15:41:46.554Z,59.29
2022-10-18T15:44:51.280Z,60.07
2022-10-18T15:48:01.408Z,60.75
2022-10-18T15:51:07.597Z,61.53
2022-10-18T15:54:19.111Z,62.27
2022-10-18T15:57:27.846Z,63.19
2022-10-18T16:00:36.892Z,64.69
2022-10-18T16:03:39.936Z,65.50
2022-10-18T16:06:47.121Z,66.21
2022-10-18T16:09:56.184Z,66.56
2022-10-18T16:12:59.501Z,67.34
2022-10-18T16:16:04.801Z,68.10
2022-10-18T16:19:16.727Z,68.38
2022-10-18T16:22:19.643Z,69.09
2022-10-18T16:25:22.266Z,69.49
2022-10-18T16:28:28.132Z,70.29
2022-10-18T16:31:34.192Z,70.77
2022-10-18T16:34:38.112Z,71.95
2022-10-18T16:37:40.969Z,73.25
2022-10-18T16:40:44.029Z,73.57
2022-10-18T16:43:48.135Z,74.01
2022-10-18T16:46:53.967Z,74.30
2022-10-18T16:50:04.091Z,74.96
2022-10-18T16:53:09.740Z,75.06
2022-10-18T16:56:18.307Z,74.88
2022-10-18T16:59:31.724Z,75.77
2022-10-18T17:02:34.702Z,76.07
2022-10-18T17:05:37.750Z,76.30
2022-10-18T17:08:40.344Z,76.72
2022-10-18T17:11:43.368Z,77.28
2022-10-18T17:14:46.061Z,77.19
2022-10-18T17:17:50.054Z,77.46
2022-10-18T17:20:53.836Z,77.88
2022-10-18T17:24:03.014Z,78.00
2022-10-18T17:27:05.617Z,78.42
2022-10-18T17:30:10.124Z,78.72
2022-10-18T17:33:14.425Z,78.30
2022-10-18T17:36:17.752Z,78.61
2022-10-18T17:39:20.668Z,78.79
2022-10-18T17:42:23.570Z,79.67
2022-10-18T17:45:26.783Z,80.03
2022-10-18T17:48:29.886Z,79.98
2022-10-18T17:51:32.710Z,80.20
2022-10-18T17:54:35.631Z,80.07
2022-10-18T17:57:39.727Z,80.32
2022-10-18T18:00:47.143Z,80.62
2022-10-18T18:03:50.986Z,81.00
2022-10-18T18:06:53.730Z,81.16
2022-10-18T18:09:56.824Z,81.37
2022-10-18T18:13:02.400Z,81.91
2022-10-18T18:16:21.666Z,81.85
2022-10-18T18:19:24.309Z,81.77
2022-10-18T18:22:27.167Z,81.96
2022-10-18T18:25:32.167Z,82.51
2022-10-18T18:28:36.383Z,83.22
2022-10-18T18:31:43.434Z,83.03
2022-10-18T18:34:46.649Z,83.34
2022-10-18T18:37:52.200Z,82.85
2022-10-18T18:41:13.526Z,83.06
2022-10-18T18:44:16.923Z,83.20
2022-10-18T18:47:21.878Z,83.48
2022-10-18T18:50:25.192Z,83.77
2022-10-18T18:53:29.685Z,83.33
2022-10-18T18:56:33.188Z,82.76
2022-10-18T18:59:36.516Z,83.24
2022-10-18T19:02:39.180Z,82.77
2022-10-18T19:05:42.248Z,83.06
2022-10-18T19:08:46.545Z,83.43
2022-10-18T19:11:52.535Z,83.72
2022-10-18T19:14:55.042Z,84.24
2022-10-18T19:17:57.875Z,84.81
2022-10-18T19:21:00.692Z,84.85
2022-10-18T19:24:04.527Z,85.07
2022-10-18T19:27:09.782Z,85.66
2022-10-18T19:30:13.142Z,85.68
2022-10-18T19:33:35.548Z,85.72
2022-10-18T19:36:47.278Z,85.41
2022-10-18T19:39:49.878Z,86.29
2022-10-18T19:42:52.837Z,85.75
2022-10-18T19:45:55.376Z,85.45
2022-10-18T19:48:58.753Z,86.01
2022-10-18T19:52:01.696Z,86.68
2022-10-18T19:55:05.027Z,86.24
2022-10-18T19:58:08.077Z,86.43
2022-10-18T20:01:12.169Z,86.68
2022-10-18T20:04:17.238Z,86.22
2022-10-18T20:07:19.870Z,85.72
2022-10-18T20:10:24.686Z,85.87
2022-10-18T20:13:27.387Z,86.08
2022-10-18T20:16:33.033Z,86.24
2022-10-18T20:20:28.832Z,85.88
2022-10-18T20:23:32.636Z,85.57
2022-10-18T20:26:36.025Z,85.98
2022-10-18T20:29:39.244Z,86.13
2022-10-18T20:32:42.826Z,86.42
2022-10-18T20:35:49.969Z,86.27
2022-10-18T20:38:55.419Z,86.43
2022-10-18T20:42:54.669Z,86.81
2022-10-18T20:45:58.478Z,86.66
2022-10-18T20:49:02.064Z,86.53
2022-10-18T20:52:04.722Z,87.37
2022-10-18T20:55:07.831Z,87.26
2022-10-18T20:58:11.402Z,87.14
2022-10-18T21:01:25.659Z,86.53
2022-10-18T21:04:28.315Z,86.33
2022-10-18T21:07:31.480Z,86.33
2022-10-18T21:10:36.843Z,86.77
2022-10-18T21:13:40.950Z,87.28
2022-10-18T21:16:44.405Z,86.84
2022-10-18T21:19:47.271Z,86.72
2022-10-18T21:22:51.702Z,86.85
2022-10-18T21:25:54.579Z,87.17
2022-10-18T21:28:58.960Z,87.43
2022-10-18T21:32:02.777Z,87.57
2022-10-18T21:35:06.077Z,87.45
2022-10-18T21:38:08.919Z,87.70
2022-10-18T21:41:13.189Z,87.61
2022-10-18T21:44:16.623Z,87.74
2022-10-18T21:47:19.198Z,87.99
2022-10-18T21:50:22.555Z,87.80
2022-10-18T21:53:25.087Z,87.61
2022-10-18T21:56:30.563Z,87.72
2022-10-18T21:59:33.093Z,88.09
2022-10-18T22:02:36.096Z,87.83
2022-10-18T22:05:39.403Z,88.44
2022-10-18T22:09:04.662Z,87.44
2022-10-18T22:12:10.742Z,88.04
2022-10-18T22:15:13.535Z,88.27
2022-10-18T22:18:16.632Z,88.21
2022-10-18T22:21:20.475Z,87.41
2022-10-18T22:24:23.479Z,87.95
2022-10-18T22:27:26.086Z,88.16
2022-10-18T22:30:29.127Z,88.44
2022-10-18T22:33:32.065Z,88.76
2022-10-18T22:36:35.640Z,88.68
2022-10-18T22:39:38.202Z,88.79
2022-10-18T22:42:41.045Z,88.86
2022-10-18T22:45:43.645Z,88.99
2022-10-18T22:48:47.175Z,88.90
2022-10-18T22:51:49.719Z,88.38
2022-10-18T22:54:52.578Z,87.94
2022-10-18T22:57:56.271Z,88.35
2022-10-18T23:01:02.277Z,87.87
2022-10-18T23:04:04.948Z,88.41
2022-10-18T23:07:07.830Z,88.30
2022-10-18T23:10:10.440Z,87.98
2022-10-18T23:13:14.323Z,88.24
2022-10-18T23:16:17.053Z,88.24
2022-10-18T23:19:19.889Z,88.24
2022-10-18T23:22:22.471Z,88.22
2022-10-18T23:25:25.383Z,88.60
2022-10-18T23:28:27.947Z,88.67
2022-10-18T23:31:33.335Z,88.83
2022-10-18T23:34:35.928Z,88.31
2022-10-18T23:37:38.783Z,87.83
2022-10-18T23:40:42.147Z,87.65
2022-10-18T23:43:46.085Z,87.02
2022-10-18T23:46:48.602Z,86.87
2022-10-18T23:49:51.492Z,87.36
2022-10-18T23:52:54.093Z,87.58
2022-10-18T23:56:00.988Z,87.95
2022-10-18T23:59:03.520Z,88.44
